Tuesday, January 23, 2018, 6:53 PM EST
Back to Local

KFIT, Fitchburg, Fitchburg Municipal Airport

Location: Leominster, MA, United States Lat: 42.552
Local Time: 6:53 PM EST (23:53 GMT) Lon: -71.756
Time Zone: US/Eastern Elev: 347 ft

Show me the last for .
Show Decoded

2018-01-23 17:52 METAR KFIT 232252Z AUTO 00000KT 4SM BR CLR 01/01 A2952 RMK AO2 SLP000 T00110011
                 =
2018-01-23 16:52 METAR KFIT 232152Z AUTO 00000KT 4SM BR SCT009 02/01 A2949 RMK AO2 RAE05 SLP991
                 P0000 T00170011 =
2018-01-23 16:20 METAR KFIT 232120Z AUTO 00000KT 4SM BR BKN014 BKN025 OVC030 02/01 A2951 RMK AO2
                 RAE05 P0000 T00170011 =
2018-01-23 16:08 METAR KFIT 232108Z AUTO 00000KT 5SM BR SCT016 BKN023 OVC030 02/01 A2951 RMK AO2
                 RAE05 P0000 T00170011 =
2018-01-23 15:52 METAR KFIT 232052Z AUTO 00000KT 2 1/2SM -RA BR FEW007 SCT012 OVC020 02/02 A2952
                 RMK AO2 SLP999 P0005 60015 T00170017 56040 =
2018-01-23 15:48 METAR KFIT 232048Z AUTO 02003KT 2SM -RA BR SCT007 BKN012 OVC020 02/02 A2952 RMK
                 AO2 P0005 =
2018-01-23 15:33 METAR KFIT 232033Z AUTO 01005KT 1 1/2SM -RA BR OVC007 02/01 A2952 RMK AO2 P0004
                 T00170011 =
2018-01-23 15:25 METAR KFIT 232025Z AUTO 33006KT 2SM -RA BR OVC007 02/01 A2952 RMK AO2 P0003
                 T00170006 =
2018-01-23 15:17 METAR KFIT 232017Z AUTO 33005KT 3SM -RA BR OVC007 02/01 A2951 RMK AO2 P0002
                 T00170011 =
2018-01-23 15:06 METAR KFIT 232006Z AUTO 34005KT 2SM -RA BR OVC007 02/01 A2952 RMK AO2 P0002
                 T00170011 =
2018-01-23 14:59 METAR KFIT 231959Z AUTO 31004KT 1 3/4SM RA BR OVC005 02/01 A2952 RMK AO2 P0001
                 T00170011 =
2018-01-23 14:52 METAR KFIT 231952Z AUTO 31003KT 2SM -RA BR OVC004 02/01 A2953 RMK AO2 SLP002
                 P0005 T00170006 =
2018-01-23 14:35 METAR KFIT 231935Z AUTO 30003KT 1 3/4SM +RA BR OVC004 01/01 A2954 RMK AO2 P0002
                 T00110011 =
2018-01-23 14:25 METAR KFIT 231925Z AUTO 31004KT 3SM -RA BR OVC004 01/01 A2954 RMK AO2 P0000
                 T00110006 =
2018-01-23 14:07 METAR KFIT 231907Z AUTO 00000KT 7SM -RA OVC005 01/01 A2954 RMK AO2 P0000
                 T00110011 =
2018-01-23 13:52 METAR KFIT 231852Z AUTO 00000KT 7SM -RA OVC004 01/01 A2957 RMK AO2 RAB16 CIG
                 003V006 SLP017 P0005 T00110006 =
2018-01-23 13:39 METAR KFIT 231839Z AUTO VRB04KT 3SM RA BR OVC004 01/01 A2958 RMK AO2 RAB16 P0004
                 T00110006 =
2018-01-23 13:26 METAR KFIT 231826Z AUTO 00000KT 1 3/4SM +RA BR OVC004 01/01 A2959 RMK AO2 RAB16
                 P0003 T00110006 =
2018-01-23 13:00 METAR KFIT 231800Z AUTO 00000KT 10SM OVC004 01/01 A2963 RMK AO2 T00110006 =
2018-01-23 12:52 METAR KFIT 231752Z AUTO 00000KT 10SM OVC005 01/01 A2964 RMK AO2 RAB15E46FZRAE09
                 SLP040 P0001 60050 I1010 I6028 T00110006 10011 21006 58064 =
2018-01-23 12:40 METAR KFIT 231740Z AUTO 00000KT 7SM -RA OVC005 01/01 A2965 RMK AO2 RAB15FZRAE09
                 P0001 I1010 T00110006 =
2018-01-23 12:10 METAR KFIT 231710Z AUTO 00000KT 10SM OVC006 01/00 A2968 RMK AO2 FZRAE09 PRESFR
                 P0001 I1008 T00060000 =
2018-01-23 11:52 METAR KFIT 231652Z AUTO 00000KT 5SM -FZRA BR BKN005 OVC011 01/01 A2971 RMK AO2
                 PRESFR SLP064 P0015 I1005 T00060006 =
2018-01-23 11:49 METAR KFIT 231649Z AUTO 00000KT 3SM -FZRA BR BKN005 OVC009 01/01 A2971 RMK AO2
                 PRESFR P0015 I1005 =
2018-01-23 11:45 METAR KFIT 231645Z AUTO 00000KT 1 1/2SM -FZRA BR OVC005 01/01 A2972 RMK AO2
                 PRESFR P0015 I1005 T00060006 =
2018-01-23 11:39 METAR KFIT 231639Z AUTO 00000KT 1SM FZRA BR OVC005 01/01 A2972 RMK AO2 PRESFR
                 P0014 I1004 T00060006 =
2018-01-23 11:28 METAR KFIT 231628Z AUTO 00000KT 1 3/4SM FZRA BR OVC005 01/M01 A2974 RMK AO2
                 P0006 I1003 T00061006 =
2018-01-23 11:25 METAR KFIT 231625Z AUTO 00000KT 3SM FZRA BR OVC005 01/M01 A2975 RMK AO2 P0005
                 I1002 T00061006 =
2018-01-23 11:16 METAR KFIT 231616Z AUTO 00000KT 5SM -FZRA BR OVC006 01/00 A2975 RMK AO2 P0003
                 I1001 T00060000 =
2018-01-23 11:08 METAR KFIT 231608Z AUTO 00000KT 2 1/2SM -FZRA BR OVC006 01/00 A2976 RMK AO2 VIS
                 2V4 P0003 I1001 T00060000 =
2018-01-23 10:59 METAR KFIT 231559Z AUTO 00000KT 3SM FZRA BR OVC006 01/00 A2977 RMK AO2 P0001
                 I1001 T00060000 =
2018-01-23 10:55 METAR KFIT 231555Z AUTO 00000KT 2SM -FZRA BR OVC006 01/00 A2977 RMK AO2 P0000
                 I1000 T00060000 =
2018-01-23 10:52 METAR KFIT 231552Z AUTO 00000KT 1 3/4SM FZRA BR OVC006 01/00 A2978 RMK AO2
                 UPB30E39RAB39E51FZRAE30B51 SLP088 P0019 I1006 T00060000 =
2018-01-23 10:42 METAR KFIT 231542Z AUTO VRB03KT 1 3/4SM +RA BR OVC006 01/00 A2978 RMK AO2
                 UPB30E39RAB39FZRAE30 P0016 I1005 T00060000 =
2018-01-23 10:36 METAR KFIT 231536Z AUTO 00000KT 4SM UP BR OVC006 01/M01 A2979 RMK AO2
                 UPB30FZRAE30 P0012 I1005 T00061006 =
2018-01-23 10:25 METAR KFIT 231525Z AUTO 05004KT 6SM -FZRA BR OVC006 00/M01 A2979 RMK AO2 P0010
                 I1005 T00001006 =
2018-01-23 10:16 METAR KFIT 231516Z AUTO 00000KT 3SM FZRA BR OVC006 00/M01 A2980 RMK AO2 PRESFR
                 P0010 I1005 T00001006 =
2018-01-23 10:11 METAR KFIT 231511Z AUTO 03004KT 2 1/2SM -FZRA BR OVC006 00/M01 A2981 RMK AO2
                 P0008 I1004 T00001006 =
2018-01-23 09:59 METAR KFIT 231459Z AUTO 02003KT 1 1/2SM FZRA BR OVC006 00/M01 A2983 RMK AO2
                 P0004 I1002 T00001006 =
2018-01-23 09:52 METAR KFIT 231452Z AUTO VRB03KT 1 3/4SM FZRA BR OVC005 00/M01 A2983 RMK AO2
                 UPE05FZRAB05 PRESFR SLP105 P0015 60015 I1006 I3007 T00001006 56048 =
2018-01-23 09:30 METAR KFIT 231430Z AUTO 04004KT 2SM FZRA BR OVC005 M01/M01 A2986 RMK AO2
                 UPE05FZRAB05 P0007 I1002 T10061011 =
2018-01-23 09:22 METAR KFIT 231422Z AUTO 04005KT 1 1/4SM FZRA BR OVC003 M01/M01 A2986 RMK AO2
                 UPE05FZRAB05 P0004 I1002 T10061011 =
2018-01-23 09:08 METAR KFIT 231408Z AUTO 02005KT 1/2SM FZRA FZFG OVC003 M01/M01 A2987 RMK AO2
                 UPE05FZRAB05 P0000 I1001 T10061011 =
2018-01-23 08:52 METAR KFIT 231352Z AUTO 01004KT 1/2SM UP FZFG OVC003 M01/M01 A2988 RMK AO2 UPB52
                 SLP123 P0000 T10061011 =
2018-01-23 07:52 METAR KFIT 231252Z AUTO 06003KT 1/2SM FZFG OVC003 M01/M01 A2991 RMK AO2 PRESFR
                 SLP132 I1001 T10061011 =
2018-01-23 07:35 METAR KFIT 231235Z AUTO 00000KT 3/4SM BR OVC003 M01/M01 A2993 RMK AO2 I1000
                 T10061011 =
2018-01-23 06:52 METAR KFIT 231152Z AUTO 03003KT 1 3/4SM BR OVC003 M01/M01 A2997 RMK AO2 SLP154
                 60001 70010 I1000 I6002 T10061011 10000 21006 56027 =
2018-01-23 05:52 METAR KFIT 231052Z AUTO 03005KT 1 1/2SM BR OVC003 M01/M01 A2999 RMK AO2 FZRAE03
                 SLP160 P0000 I1001 T10061011 =
2018-01-23 05:16 METAR KFIT 231016Z AUTO 05003KT 1 3/4SM BR OVC003 00/M01 A3001 RMK AO2 FZRAE03
                 P0000 I1000 T00001006 =
2018-01-23 05:09 METAR KFIT 231009Z AUTO 06004KT 2SM BR OVC003 00/M01 A3001 RMK AO2 FZRAE03 P0000
                 I1000 T00001006 =
2018-01-23 05:01 METAR KFIT 231001Z AUTO 02004KT 2SM -FZRA BR OVC003 00/M01 A3001 RMK AO2 P0000
                 I1000 T00001006 =
2018-01-23 04:52 METAR KFIT 230952Z AUTO 02005KT 1 3/4SM -FZRA BR OVC003 00/M01 A3001 RMK AO2
                 UPB33E37FZRAB37 SLP168 P0001 I1001 T00001006 =
2018-01-23 04:43 METAR KFIT 230943Z AUTO 00000KT 1 3/4SM -FZRA BR OVC003 00/M01 A3001 RMK AO2
                 UPB33E37FZRAB37 P0000 I1000 T00001006 =
2018-01-23 04:27 METAR KFIT 230927Z AUTO 36004KT 1 3/4SM BR OVC003 00/M01 A3002 RMK AO2 T00001006
                 =
2018-01-23 03:52 METAR KFIT 230852Z AUTO 01003KT 2SM BR OVC003 00/M01 A3005 RMK AO2 SLP181 I1000
                 I3000 T00001011 58031 =
2018-01-23 02:52 METAR KFIT 230752Z AUTO 01003KT 2 1/2SM BR OVC004 00/M01 A3009 RMK AO2 SLP192
                 I1000 T00001011 =
2018-01-23 02:10 METAR KFIT 230710Z AUTO 03003KT 2 1/2SM BR OVC004 M01/M01 A3010 RMK AO2
                 T10061011 =
2018-01-23 01:52 METAR KFIT 230652Z AUTO 36004KT 3SM BR OVC004 00/M01 A3011 RMK AO2 SLP202 I1000
                 T00001011 =
2018-01-23 01:24 METAR KFIT 230624Z AUTO 02004KT 3SM BR OVC004 00/M01 A3013 RMK AO2 T00001011 =
2018-01-23 00:59 METAR KFIT 230559Z AUTO 02003KT 3SM BR OVC005 00/M01 A3014 RMK AO2 T00001011 =
2018-01-23 00:52 METAR KFIT 230552Z AUTO 35004KT 2 1/2SM BR OVC005 00/M01 A3015 RMK AO2 SLP212
                 60004 I1001 I6008 T00001011 10006 21006 58013 =
2018-01-23 00:13 METAR KFIT 230513Z AUTO 02004KT 2SM BR OVC005 M01/M01 A3015 RMK AO2 I1001
                 T10061011 =
2018-01-22 23:52 METAR KFIT 230452Z AUTO 36005KT 2SM BR OVC004 00/M01 A3016 RMK AO2 SLP217 I1001
                 T00001011 400280000 =
2018-01-22 23:23 METAR KFIT 230423Z AUTO 00000KT 2SM BR OVC005 00/M01 A3017 RMK AO2 I1001
                 T00001006 =
2018-01-22 23:12 METAR KFIT 230412Z AUTO 02005KT 1 3/4SM BR OVC005 00/M01 A3017 RMK AO2 I1000
                 T00001011 =
2018-01-22 22:52 METAR KFIT 230352Z AUTO 35003KT 2SM BR OVC005 00/M01 A3018 RMK AO2 SLP225 I1000
                 T00001011 =
2018-01-22 22:50 METAR KFIT 230350Z AUTO 01004KT 2 1/2SM BR OVC005 00/M01 A3018 RMK AO2 I1000 =
2018-01-22 22:26 METAR KFIT 230326Z AUTO 01005KT 4SM BR OVC005 00/M01 A3019 RMK AO2 T00001011 =
2018-01-22 21:52 METAR KFIT 230252Z AUTO 02003KT 6SM BR OVC007 00/M01 A3020 RMK AO2
                 UPB22E38FZRAE22 SLP231 P0000 60004 I1000 I3006 T00001011 58021 =
2018-01-22 21:28 METAR KFIT 230228Z AUTO 03004KT 7SM UP OVC007 00/M01 A3022 RMK AO2 UPB22FZRAE22
                 P0000 I1000 T00001011 =
2018-01-22 20:52 METAR KFIT 230152Z AUTO 01005KT 5SM -FZRA BR OVC007 01/M01 A3024 RMK AO2 SLP243
                 P0003 I1004 T00061006 =
2018-01-22 20:10 METAR KFIT 230110Z AUTO 01005KT 3SM -FZRA BR OVC006 01/M01 A3025 RMK AO2 P0001
                 I1001 T00061006 =
2018-01-22 20:01 METAR KFIT 230101Z AUTO 02004KT 1 3/4SM -FZRA BR OVC006 00/M01 A3025 RMK AO2
                 P0001 I1001 T00001006 =
2018-01-22 19:52 METAR KFIT 230052Z AUTO 03006KT 2SM -FZRA BR OVC006 00/M01 A3025 RMK AO2 FZRAB08
                 SLP249 P0001 I1002 T00001006 =
2018-01-22 19:14 METAR KFIT 230014Z AUTO VRB04KT 2 1/2SM -FZRA BR OVC006 01/M01 A3026 RMK AO2
                 FZRAB08 P0000 I1000 T00061006 =

Support USWX by starting your Amazon purchase here.